Time;durP1;ratioP1;P1;durP2;ratioP2;P2;SDS_P1;SDS_P2;PMS_P1;PMS_P2;Temp;Humidity;BMP_temperature;BMP_pressure;BME280_temperature;BME280_humidity;BME280_pressure;Samples;Min_cycle;Max_cycle;Signal;HPM_P1;HPM_P2
2022/04/17 00:01:37;;;;;;;11.43;8.43;;;;;;;12.04;35.81;102893.59;5092174;28;20032;-61
2022/04/17 00:04:03;;;;;;;11.02;8.70;;;;;;;12.03;36.06;102897.47;5093952;28;20024;-61
2022/04/17 00:06:29;;;;;;;11.15;8.70;;;;;;;11.96;36.09;102896.59;5092347;28;20040;-61
2022/04/17 00:08:54;;;;;;;10.98;8.00;;;;;;;11.87;36.64;102895.94;5089294;28;20032;-61
2022/04/17 00:11:19;;;;;;;9.77;7.55;;;;;;;11.84;36.32;102899.16;5086235;28;20039;-61
2022/04/17 00:13:45;;;;;;;9.60;8.15;;;;;;;11.89;36.17;102904.91;5091283;28;20023;-61
2022/04/17 00:16:10;;;;;;;9.95;7.68;;;;;;;11.86;35.79;102901.69;5093337;28;20026;-62
2022/04/17 00:18:37;;;;;;;10.02;7.68;;;;;;;11.84;35.93;102893.59;5092623;28;20031;-61
2022/04/17 00:21:03;;;;;;;12.65;8.30;;;;;;;11.77;35.78;102895.47;5092455;28;20035;-61
2022/04/17 00:23:28;;;;;;;10.65;8.00;;;;;;;11.68;36.50;102893.94;5093087;28;20039;-61
2022/04/17 00:25:54;;;;;;;13.15;8.13;;;;;;;11.62;36.76;102894.78;5087821;28;20032;-61
2022/04/17 00:28:19;;;;;;;9.02;7.20;;;;;;;11.58;37.24;102891.56;5077287;28;20039;-62
2022/04/17 00:30:44;;;;;;;14.00;8.32;;;;;;;11.47;37.34;102893.03;5072517;28;20509;-61
2022/04/17 00:33:09;;;;;;;9.20;8.23;;;;;;;11.39;37.88;102892.34;5074916;28;20055;-61
2022/04/17 00:35:35;;;;;;;10.93;8.02;;;;;;;11.31;37.64;102896.19;5073436;28;20142;-62
2022/04/17 00:38:02;;;;;;;10.73;7.82;;;;;;;11.27;37.71;102892.94;5089265;28;20046;-61
2022/04/17 00:40:27;;;;;;;13.23;8.35;;;;;;;11.21;38.24;102892.94;5093299;28;20023;-61
2022/04/17 00:42:53;;;;;;;8.38;7.18;;;;;;;11.13;38.48;102888.44;5078484;28;20094;-61
2022/04/17 00:45:18;;;;;;;9.85;7.93;;;;;;;11.06;38.44;102896.72;5074579;28;20029;-61
2022/04/17 00:47:44;;;;;;;11.98;8.23;;;;;;;11.04;38.54;102892.44;5085305;28;20028;-61
2022/04/17 00:50:12;;;;;;;10.45;7.82;;;;;;;10.98;38.63;102888.56;5073506;28;20152;-61
2022/04/17 00:52:38;;;;;;;12.38;8.10;;;;;;;10.91;38.93;102887.66;5072923;28;20021;-61
2022/04/17 00:55:05;;;;;;;9.68;7.75;;;;;;;10.79;39.25;102886.53;5090182;28;20036;-61
2022/04/17 00:57:31;;;;;;;11.55;8.45;;;;;;;10.74;39.19;102886.31;5093053;28;20039;-62
2022/04/17 00:59:57;;;;;;;11.73;8.43;;;;;;;10.72;39.60;102888.41;5076904;28;20052;-61
2022/04/17 01:02:23;;;;;;;10.93;7.95;;;;;;;10.68;39.55;102887.97;5072820;28;20418;-61
2022/04/17 01:04:48;;;;;;;10.70;8.10;;;;;;;10.66;39.71;102892.88;5076008;28;20108;-61
2022/04/17 01:07:15;;;;;;;11.93;8.00;;;;;;;10.65;39.24;102882.84;5072810;28;20384;-61
2022/04/17 01:09:41;;;;;;;10.38;7.90;;;;;;;10.60;40.07;102877.00;5077738;28;20134;-61
2022/04/17 01:12:08;;;;;;;10.32;7.90;;;;;;;10.56;39.72;102876.56;5076015;28;20119;-61
2022/04/17 01:14:39;;;;;;;11.35;7.68;;;;;;;10.59;39.82;102872.53;5091461;28;20042;-61
2022/04/17 01:17:07;;;;;;;12.23;7.75;;;;;;;10.61;39.48;102880.66;5093010;28;20053;-61
2022/04/17 01:19:37;;;;;;;8.85;7.60;;;;;;;10.51;39.45;102878.25;5090587;28;20063;-61
2022/04/17 01:22:04;;;;;;;10.35;7.45;;;;;;;10.47;39.71;102875.03;5092861;28;20032;-61
2022/04/17 01:27:13;;;;;;;13.32;8.05;;;;;;;10.35;40.27;102873.88;5092174;28;20112;-61
2022/04/17 01:29:40;;;;;;;9.70;7.65;;;;;;;10.26;40.19;102875.94;5088946;28;20118;-61
2022/04/17 01:32:07;;;;;;;11.05;7.80;;;;;;;10.22;40.18;102887.63;5092234;28;20032;-61
2022/04/17 01:34:32;;;;;;;11.40;7.65;;;;;;;10.19;40.17;102890.78;5079367;28;20025;-61
2022/04/17 01:36:59;;;;;;;10.15;7.43;;;;;;;10.14;40.32;102887.75;5072376;28;20032;-61
2022/04/17 01:39:24;;;;;;;8.48;7.05;;;;;;;10.09;40.32;102886.44;5071981;28;20035;-60
2022/04/17 01:41:52;;;;;;;8.90;7.35;;;;;;;10.07;40.71;102885.78;5071773;28;20028;-61
2022/04/17 01:44:17;;;;;;;9.88;7.40;;;;;;;10.00;40.90;102884.00;5081420;28;20051;-61
2022/04/17 01:46:44;;;;;;;9.25;7.35;;;;;;;9.96;40.60;102880.78;5090353;28;20070;-61
2022/04/17 01:49:11;;;;;;;8.88;7.00;;;;;;;9.91;41.16;102883.28;5089895;28;20198;-61
2022/04/17 01:51:38;;;;;;;10.15;7.40;;;;;;;9.80;41.12;102879.13;5091811;28;20103;-60
2022/04/17 01:54:08;;;;;;;9.52;8.02;;;;;;;9.79;40.70;102885.75;5079552;28;20048;-61
2022/04/17 01:56:35;;;;;;;11.30;8.30;;;;;;;9.78;41.33;102880.38;5076631;28;20074;-61
2022/04/17 01:59:01;;;;;;;10.38;8.02;;;;;;;9.73;41.24;102882.91;5077456;28;20052;-61
2022/04/17 02:01:27;;;;;;;11.52;8.35;;;;;;;9.72;41.88;102875.63;5089769;28;20040;-60
2022/04/17 02:03:52;;;;;;;9.10;7.25;;;;;;;9.68;41.65;102875.16;5090090;28;20536;-61
2022/04/17 02:06:17;;;;;;;9.40;7.82;;;;;;;9.62;42.10;102870.41;5091742;28;20545;-61
2022/04/17 02:08:44;;;;;;;10.20;7.72;;;;;;;9.59;42.14;102871.69;5090413;28;20036;-61
2022/04/17 02:11:10;;;;;;;8.68;7.22;;;;;;;9.58;41.72;102875.47;5090458;28;20020;-60
2022/04/17 02:13:36;;;;;;;12.88;7.65;;;;;;;9.55;41.86;102875.03;5091922;28;20032;-60
2022/04/17 02:16:01;;;;;;;9.65;7.30;;;;;;;9.52;42.08;102873.50;5089614;28;20024;-61
2022/04/17 02:18:27;;;;;;;9.57;7.20;;;;;;;9.46;41.83;102870.66;5092052;28;20492;-60
2022/04/17 02:20:55;;;;;;;9.18;7.57;;;;;;;9.42;42.76;102878.50;5084130;28;20475;-60
2022/04/17 02:23:21;;;;;;;8.93;7.30;;;;;;;9.40;42.56;102868.69;5094662;28;20060;-61
2022/04/17 02:25:46;;;;;;;8.93;7.40;;;;;;;9.36;42.96;102865.44;5092712;28;20047;-61
2022/04/17 02:28:13;;;;;;;8.25;7.30;;;;;;;9.31;43.16;102862.38;5094293;28;20052;-60
2022/04/17 02:30:39;;;;;;;9.80;6.95;;;;;;;9.40;42.35;102865.94;5093598;28;20032;-61
2022/04/17 02:33:04;;;;;;;8.93;7.15;;;;;;;9.38;43.02;102863.31;5095356;28;20073;-60
2022/04/17 02:35:30;;;;;;;11.68;7.97;;;;;;;9.36;42.49;102865.44;5076206;28;20051;-60
2022/04/17 02:37:55;;;;;;;8.10;7.15;;;;;;;9.34;42.35;102867.53;5085919;28;20425;-60
2022/04/17 02:40:21;;;;;;;10.82;7.78;;;;;;;9.29;42.37;102862.59;5080144;28;20008;-60
2022/04/17 02:42:47;;;;;;;10.00;8.23;;;;;;;9.29;42.88;102870.06;5075364;28;20395;-60
2022/04/17 02:45:13;;;;;;;12.25;7.53;;;;;;;9.30;42.47;102863.44;5076199;28;20024;-61
2022/04/17 02:47:44;;;;;;;10.70;7.57;;;;;;;9.23;42.98;102856.97;5075443;28;20025;-61
2022/04/17 02:50:11;;;;;;;11.60;7.70;;;;;;;9.14;42.96;102861.78;5075242;28;20494;-61
2022/04/17 02:52:36;;;;;;;9.10;6.93;;;;;;;9.09;43.25;102867.91;5094766;28;20028;-61
2022/04/17 02:55:02;;;;;;;9.02;7.13;;;;;;;9.04;43.10;102861.25;5087298;28;20497;-61
2022/04/17 02:57:28;;;;;;;9.45;6.95;;;;;;;9.00;43.22;102852.47;5092936;28;20107;-60
2022/04/17 02:59:53;;;;;;;9.02;6.90;;;;;;;8.93;43.62;102865.34;5085020;28;20556;-60
2022/04/17 03:07:50;;;;;;;10.80;7.15;;;;;;;8.81;43.53;102841.97;5090052;28;20045;-61
2022/04/17 03:10:15;;;;;;;9.70;7.35;;;;;;;8.76;43.35;102849.97;5091239;28;20033;-61
2022/04/17 03:12:40;;;;;;;10.35;7.38;;;;;;;8.72;44.44;102846.72;5085800;28;20032;-61
2022/04/17 03:15:07;;;;;;;10.05;7.38;;;;;;;8.68;44.87;102852.84;5090620;28;20472;-61
2022/04/17 03:17:32;;;;;;;11.05;7.65;;;;;;;8.69;44.03;102844.38;5074382;28;20025;-61
2022/04/17 03:19:57;;;;;;;9.30;7.45;;;;;;;8.71;44.19;102845.03;5086942;28;20028;-61
2022/04/17 03:22:23;;;;;;;8.82;7.40;;;;;;;8.71;43.86;102839.50;5094799;28;20348;-61
2022/04/17 03:24:49;;;;;;;10.55;7.13;;;;;;;8.70;43.79;102839.69;5093011;28;20032;-60
2022/04/17 03:27:14;;;;;;;9.50;7.25;;;;;;;8.65;43.71;102840.28;5093801;28;20085;-61
2022/04/17 03:29:40;;;;;;;10.20;7.30;;;;;;;8.60;44.04;102835.28;5082704;28;20033;-61
2022/04/17 03:32:05;;;;;;;8.65;7.50;;;;;;;8.58;44.10;102833.78;5092666;28;20043;-60
2022/04/17 03:34:31;;;;;;;8.20;6.88;;;;;;;8.55;44.90;102832.25;5076949;28;20033;-60
2022/04/17 03:36:58;;;;;;;9.88;7.22;;;;;;;8.53;43.89;102842.66;5074269;28;20067;-60
2022/04/17 03:39:26;;;;;;;10.88;7.72;;;;;;;8.48;43.80;102838.72;5077362;28;20111;-61
2022/04/17 03:41:53;;;;;;;8.82;7.07;;;;;;;8.47;44.53;102828.72;5074132;28;20048;-61
2022/04/17 03:44:21;;;;;;;9.32;7.25;;;;;;;8.46;44.36;102827.88;5074317;28;20059;-60
2022/04/17 03:46:47;;;;;;;9.48;7.35;;;;;;;8.44;43.80;102826.31;5091303;28;20059;-61
2022/04/17 03:49:13;;;;;;;9.50;6.68;;;;;;;8.44;44.53;102827.19;5092638;28;20060;-61
2022/04/17 03:51:39;;;;;;;8.32;7.07;;;;;;;8.37;43.70;102831.78;5094065;28;20063;-60
2022/04/17 03:54:04;;;;;;;15.45;7.47;;;;;;;8.40;44.45;102830.53;5080110;28;20032;-61
2022/04/17 03:56:29;;;;;;;8.90;7.10;;;;;;;8.29;45.00;102831.81;5073762;28;20111;-61
2022/04/17 03:58:57;;;;;;;11.25;8.23;;;;;;;8.25;44.75;102822.19;5074533;28;20048;-60
2022/04/17 04:01:23;;;;;;;9.15;7.55;;;;;;;8.25;44.80;102822.19;5082811;28;20043;-60
2022/04/17 04:03:49;;;;;;;9.88;7.95;;;;;;;8.17;44.28;102825.03;5091632;28;20020;-60
2022/04/17 04:06:15;;;;;;;15.48;7.90;;;;;;;8.24;44.36;102820.47;5093052;28;20058;-60
2022/04/17 04:08:40;;;;;;;8.77;7.10;;;;;;;8.26;44.58;102822.00;5088683;28;20483;-61
2022/04/17 04:11:05;;;;;;;13.18;7.90;;;;;;;8.21;44.53;102813.41;5093765;28;20035;-60
2022/04/17 04:13:32;;;;;;;10.30;7.45;;;;;;;8.22;44.65;102822.59;5081382;28;20051;-60
2022/04/17 04:15:58;;;;;;;10.68;7.55;;;;;;;8.24;44.75;102812.16;5073210;28;20028;-60
2022/04/17 04:18:23;;;;;;;8.95;7.07;;;;;;;8.18;44.72;102818.47;5073830;28;20032;-60
2022/04/17 04:20:48;;;;;;;8.70;6.75;;;;;;;8.20;44.60;102808.06;5091698;28;20403;-60
2022/04/17 04:23:19;;;;;;;12.07;7.30;;;;;;;8.20;44.33;102808.06;5092792;28;20028;-60
2022/04/17 04:25:44;;;;;;;9.80;6.95;;;;;;;8.30;44.71;102797.59;5090588;28;20058;-60
2022/04/17 04:30:53;;;;;;;9.07;7.07;;;;;;;8.41;44.25;102799.03;5078007;28;20574;-61
2022/04/17 04:33:19;;;;;;;7.88;7.07;;;;;;;8.36;44.42;102797.66;5072966;28;20104;-60
2022/04/17 04:35:44;;;;;;;13.75;7.88;;;;;;;8.28;44.36;102797.75;5076134;28;20066;-61
2022/04/17 04:38:09;;;;;;;8.30;6.78;;;;;;;8.23;45.02;102797.47;5092909;28;20031;-60
2022/04/17 04:40:37;;;;;;;10.27;7.70;;;;;;;8.09;45.24;102796.41;5091450;28;20040;-60
2022/04/17 04:43:03;;;;;;;12.07;7.25;;;;;;;7.99;45.97;102798.59;5083721;28;20089;-60
2022/04/17 04:48:14;;;;;;;8.98;6.75;;;;;;;7.87;45.46;102795.44;5091619;28;20058;-60
2022/04/17 04:50:39;;;;;;;10.57;7.22;;;;;;;7.82;45.39;102789.63;5092090;28;20090;-61
2022/04/17 04:53:05;;;;;;;11.05;8.18;;;;;;;7.79;45.67;102800.19;5092192;28;20055;-60
2022/04/17 04:55:30;;;;;;;10.18;7.55;;;;;;;7.78;45.78;102798.44;5089701;28;20029;-60
2022/04/17 04:57:56;;;;;;;9.75;7.50;;;;;;;7.75;46.45;102794.19;5072130;28;20032;-61
2022/04/17 05:00:21;;;;;;;10.15;7.68;;;;;;;7.70;46.25;102802.16;5077109;28;20086;-60
2022/04/17 05:02:47;;;;;;;10.52;7.57;;;;;;;7.69;46.22;102802.34;5077806;28;20035;-60
2022/04/17 05:05:12;;;;;;;11.95;7.40;;;;;;;7.65;46.39;102795.47;5072142;28;20119;-60
2022/04/17 05:07:38;;;;;;;12.90;7.90;;;;;;;7.63;46.65;102793.78;5081492;28;20483;-61
2022/04/17 05:10:05;;;;;;;10.70;8.05;;;;;;;7.64;46.92;102791.84;5089094;28;20118;-60
2022/04/17 05:12:31;;;;;;;10.80;7.80;;;;;;;7.65;47.04;102801.00;5088692;28;20040;-60
2022/04/17 05:14:56;;;;;;;9.32;7.30;;;;;;;7.65;47.14;102801.88;5087249;28;20024;-60
2022/04/17 05:17:21;;;;;;;12.13;7.80;;;;;;;7.71;46.69;102795.59;5090297;28;20031;-61
2022/04/17 05:19:46;;;;;;;11.05;8.27;;;;;;;7.70;46.36;102804.91;5078932;28;20040;-61
2022/04/17 05:22:16;;;;;;;11.05;7.35;;;;;;;7.69;46.61;102805.97;5089958;28;20506;-61
2022/04/17 05:24:45;;;;;;;8.38;7.32;;;;;;;7.68;46.62;102809.78;5091377;28;20035;-60
2022/04/17 05:27:12;;;;;;;10.70;8.50;;;;;;;7.77;46.60;102802.28;5076174;28;20076;-60
2022/04/17 05:29:37;;;;;;;12.05;7.75;;;;;;;7.79;46.37;102802.97;5090058;28;20558;-61
2022/04/17 05:32:03;;;;;;;12.55;7.82;;;;;;;7.77;46.71;102800.38;5091480;28;20024;-61
2022/04/17 05:34:28;;;;;;;12.43;7.20;;;;;;;7.84;46.33;102815.16;5091362;28;20085;-61
2022/04/17 05:36:54;;;;;;;11.23;7.53;;;;;;;7.86;46.59;102810.31;5090524;28;20066;-60
2022/04/17 05:39:19;;;;;;;12.35;7.78;;;;;;;7.88;46.91;102810.13;5091283;28;20036;-61
2022/04/17 05:41:52;;;;;;;12.05;7.35;;;;;;;7.91;46.68;102803.38;5088857;28;20050;-60
2022/04/17 05:44:23;;;;;;;9.57;7.35;;;;;;;7.96;46.57;102806.41;5089547;28;20028;-61
2022/04/17 05:46:48;;;;;;;11.77;7.57;;;;;;;8.01;45.57;102809.47;5077331;28;20094;-60
2022/04/17 05:49:14;;;;;;;10.88;7.25;;;;;;;8.06;45.72;102802.34;5078397;28;20032;-61
2022/04/17 05:51:39;;;;;;;13.57;7.20;;;;;;;8.17;45.48;102812.06;5076889;28;20035;-60
2022/04/17 05:54:06;;;;;;;10.30;7.43;;;;;;;8.26;45.15;102808.19;5075887;28;20025;-60
2022/04/17 05:56:31;;;;;;;10.55;7.47;;;;;;;8.28;45.29;102802.44;5091109;28;20028;-60
2022/04/17 05:58:57;;;;;;;10.20;7.20;;;;;;;8.37;44.95;102804.13;5071410;28;20050;-60
2022/04/17 06:01:24;;;;;;;10.43;7.00;;;;;;;8.40;45.02;102809.25;5080708;28;20028;-61
2022/04/17 06:03:49;;;;;;;10.38;7.00;;;;;;;8.51;44.35;102807.91;5082428;28;20028;-60
2022/04/17 06:06:16;;;;;;;12.40;7.18;;;;;;;8.56;44.42;102814.59;5082849;28;20029;-61
2022/04/17 06:08:41;;;;;;;10.60;7.38;;;;;;;8.56;45.58;102803.50;5085642;28;20380;-61
2022/04/17 06:11:06;;;;;;;10.55;7.18;;;;;;;8.72;44.70;102801.59;5079496;28;20024;-61
2022/04/17 06:13:32;;;;;;;9.38;6.47;;;;;;;8.77;44.56;102794.44;5091659;28;20024;-61
2022/04/17 06:15:57;;;;;;;10.55;6.53;;;;;;;8.92;43.94;102802.72;5073967;28;20056;-61
2022/04/17 06:18:22;;;;;;;8.13;6.60;;;;;;;9.08;43.74;102802.47;5077953;28;20044;-61
2022/04/17 06:20:47;;;;;;;9.25;7.03;;;;;;;9.18;43.39;102796.59;5089540;28;20037;-61
2022/04/17 06:23:13;;;;;;;10.15;5.95;;;;;;;9.27;43.24;102794.56;5089529;28;20056;-61
2022/04/17 06:25:40;;;;;;;8.13;5.68;;;;;;;9.41;43.07;102799.19;5093592;28;20487;-62
2022/04/17 06:28:06;;;;;;;10.23;5.97;;;;;;;9.44;42.53;102796.03;5090547;28;20383;-61
2022/04/17 06:30:31;;;;;;;7.82;5.75;;;;;;;9.53;42.38;102793.97;5087655;28;20028;-61
2022/04/17 06:32:56;;;;;;;7.38;5.68;;;;;;;9.65;42.11;102789.59;5089569;28;20031;-61
2022/04/17 06:35:22;;;;;;;7.78;5.68;;;;;;;9.77;41.94;102790.78;5081007;28;20035;-61
2022/04/17 06:37:50;;;;;;;6.43;5.63;;;;;;;9.83;41.82;102784.44;5086700;28;20391;-62
2022/04/17 06:40:27;;;;;;;6.63;5.35;;;;;;;9.93;41.83;102788.78;5079761;28;20034;-61
2022/04/17 06:42:55;;;;;;;7.05;5.60;;;;;;;10.07;41.43;102797.00;5084314;28;20028;-60
2022/04/17 06:45:21;;;;;;;5.50;4.90;;;;;;;10.20;41.60;102795.38;5087037;28;20098;-61
2022/04/17 06:47:47;;;;;;;6.63;5.13;;;;;;;10.26;41.61;102794.59;5083883;28;20025;-61
2022/04/17 06:50:15;;;;;;;5.15;4.65;;;;;;;10.34;40.90;102796.38;5083293;28;20081;-60
2022/04/17 06:52:43;;;;;;;9.18;4.78;;;;;;;10.41;40.60;102788.91;5081496;28;20025;-61
2022/04/17 06:55:11;;;;;;;9.82;4.88;;;;;;;10.51;40.59;102784.69;5079937;28;20030;-61
2022/04/17 06:57:37;;;;;;;7.10;5.03;;;;;;;10.61;39.61;102784.34;5087588;28;20056;-61
2022/04/17 07:00:10;;;;;;;7.95;4.60;;;;;;;10.71;40.38;102787.56;5087399;28;20115;-60
2022/04/17 07:02:38;;;;;;;;;;;;;;;11.02;48.08;102781.50;5081839;28;20082;-61
2022/04/17 07:05:05;;;;;;;3.40;2.90;;;;;;;11.87;52.44;102779.06;5079968;28;20412;-61
2022/04/17 07:07:30;;;;;;;3.47;2.97;;;;;;;12.35;49.32;102780.72;5085468;28;20032;-61
2022/04/17 07:10:02;;;;;;;3.85;3.55;;;;;;;12.58;42.86;102778.28;5091084;28;20038;-61
2022/04/17 07:12:31;;;;;;;4.45;3.60;;;;;;;12.71;43.19;102777.38;5088846;28;20060;-61
2022/04/17 07:14:59;;;;;;;5.13;3.42;;;;;;;12.76;39.98;102772.84;5075247;28;20020;-61
2022/04/17 07:17:35;;;;;;;5.18;3.40;;;;;;;13.08;41.50;102767.31;5080855;28;20471;-61
2022/04/17 07:20:02;;;;;;;5.68;3.65;;;;;;;13.05;39.70;102775.28;5094114;28;20040;-61
2022/04/17 07:22:28;;;;;;;4.97;3.60;;;;;;;13.12;36.78;102765.78;5083984;28;20017;-61
2022/04/17 07:24:54;;;;;;;4.43;3.42;;;;;;;13.37;38.96;102753.88;5088910;28;20077;-62
2022/04/17 07:27:20;;;;;;;5.47;3.30;;;;;;;13.54;37.31;102762.56;5091551;28;20048;-61
2022/04/17 07:29:46;;;;;;;3.58;2.90;;;;;;;13.74;37.44;102754.88;5093045;28;20737;-61
2022/04/17 07:32:11;;;;;;;5.38;3.50;;;;;;;13.66;36.08;102756.00;5076003;28;20124;-61
2022/04/17 07:34:36;;;;;;;3.58;3.28;;;;;;;13.82;36.64;102749.00;5092288;28;20036;-61
2022/04/17 07:37:01;;;;;;;4.72;3.53;;;;;;;13.85;35.95;102754.13;5091705;28;20085;-62
2022/04/17 07:39:27;;;;;;;7.28;3.45;;;;;;;13.97;36.21;102746.72;5085566;28;20036;-61
2022/04/17 07:41:53;;;;;;;3.97;2.88;;;;;;;14.11;35.83;102746.56;5093958;28;20024;-61
2022/04/17 07:44:18;;;;;;;3.22;2.90;;;;;;;14.23;35.25;102748.38;5095603;28;20110;-61
2022/04/17 07:46:43;;;;;;;3.80;3.42;;;;;;;14.26;33.78;102758.22;5098502;28;20073;-61
2022/04/17 07:49:09;;;;;;;3.97;3.10;;;;;;;14.36;34.64;102744.56;5093436;28;20490;-61
2022/04/17 07:51:35;;;;;;;4.90;3.40;;;;;;;14.32;33.48;102745.28;5085230;28;20030;-61
2022/04/17 07:54:01;;;;;;;7.25;3.45;;;;;;;14.49;34.35;102744.44;5093941;28;20025;-61
2022/04/17 07:56:26;;;;;;;3.50;2.95;;;;;;;14.61;34.26;102733.34;5082412;28;20057;-61
2022/04/17 07:58:51;;;;;;;3.53;2.92;;;;;;;14.73;34.08;102736.19;5094442;28;20059;-60
2022/04/17 08:01:18;;;;;;;3.97;2.95;;;;;;;14.78;34.39;102743.91;5093350;28;20055;-60
2022/04/17 08:06:10;;;;;;;4.47;3.47;;;;;;;15.00;33.37;102736.69;5088324;28;20492;-62
2022/04/17 08:08:37;;;;;;;3.67;2.88;;;;;;;15.19;33.15;102740.28;5086638;28;20032;-61
2022/04/17 08:11:07;;;;;;;4.53;3.20;;;;;;;15.12;32.79;102743.19;5090773;28;20031;-61
2022/04/17 08:13:34;;;;;;;4.43;3.13;;;;;;;15.31;32.83;102732.78;5092131;28;20124;-61
2022/04/17 08:16:00;;;;;;;5.03;3.38;;;;;;;15.27;32.90;102730.72;5091322;28;20043;-61
2022/04/17 08:18:26;;;;;;;3.75;2.75;;;;;;;15.46;33.40;102735.13;5090076;28;20047;-63
2022/04/17 08:20:52;;;;;;;4.18;2.90;;;;;;;15.50;33.25;102729.91;5078993;28;20376;-62
2022/04/17 08:23:17;;;;;;;4.65;3.42;;;;;;;15.54;32.78;102736.72;5089702;28;20081;-63
2022/04/17 08:25:43;;;;;;;5.30;3.25;;;;;;;15.61;32.83;102729.09;5092686;28;20483;-62
2022/04/17 08:28:08;;;;;;;5.05;2.85;;;;;;;15.79;33.10;102733.75;5095793;28;20368;-62
2022/04/17 08:30:34;;;;;;;4.60;3.13;;;;;;;15.66;31.61;102732.03;5078462;28;20537;-63
2022/04/17 08:33:02;;;;;;;7.25;3.13;;;;;;;15.85;31.94;102736.44;5103725;28;20031;-63
2022/04/17 08:35:27;;;;;;;5.10;3.38;;;;;;;15.74;31.90;102726.06;5099805;28;20027;-63
2022/04/17 08:37:54;;;;;;;3.13;2.80;;;;;;;15.77;31.11;102724.75;5103617;28;20997;-63
2022/04/17 08:40:19;;;;;;;4.30;3.05;;;;;;;15.76;30.61;102721.09;5092600;28;20036;-63
2022/04/17 08:42:45;;;;;;;4.88;2.63;;;;;;;15.86;31.55;102726.09;5089844;28;20129;-63
2022/04/17 08:45:12;;;;;;;2.85;2.50;;;;;;;16.04;31.11;102725.13;5096653;28;20038;-63
2022/04/17 08:47:39;;;;;;;3.45;2.80;;;;;;;16.14;31.37;102711.34;5096687;28;20154;-62
2022/04/17 08:50:07;;;;;;;4.57;2.88;;;;;;;16.11;30.37;102720.22;5088227;28;20032;-63
2022/04/17 08:52:33;;;;;;;3.90;2.78;;;;;;;16.34;31.23;102717.38;5092113;28;20059;-63
2022/04/17 08:55:00;;;;;;;4.93;3.00;;;;;;;16.36;30.29;102709.59;5092479;28;20500;-63
2022/04/17 08:57:25;;;;;;;3.35;2.85;;;;;;;16.27;29.81;102710.22;5083902;28;20024;-62
2022/04/17 08:59:50;;;;;;;4.53;2.78;;;;;;;16.41;31.70;102706.06;5086326;28;20048;-63
2022/04/17 09:02:17;;;;;;;6.57;2.97;;;;;;;16.43;30.71;102707.50;5094093;28;20028;-62
2022/04/17 09:04:43;;;;;;;4.72;2.50;;;;;;;16.69;31.11;102706.06;5095662;28;20390;-63
2022/04/17 09:07:12;;;;;;;3.65;3.30;;;;;;;16.48;29.70;102700.31;5091161;28;20024;-59
2022/04/17 09:09:52;;;;;;;3.35;2.78;;;;;;;16.68;30.76;102701.56;5084021;28;20031;-62
2022/04/17 09:12:24;;;;;;;5.97;2.80;;;;;;;16.80;30.90;102703.53;5087927;28;20391;-62
2022/04/17 09:14:51;;;;;;;3.83;2.88;;;;;;;16.89;30.81;102697.25;5089466;28;20111;-63
2022/04/17 09:17:17;;;;;;;5.35;3.03;;;;;;;16.92;31.07;102695.91;5089924;28;20115;-63
2022/04/17 09:19:43;;;;;;;4.18;3.08;;;;;;;16.89;30.74;102697.25;5081988;28;20115;-64
2022/04/17 09:22:12;;;;;;;3.85;3.10;;;;;;;16.74;30.48;102693.28;5085095;28;20104;-62
2022/04/17 09:24:39;;;;;;;6.32;2.67;;;;;;;16.77;30.52;102692.81;5089574;28;20024;-62
2022/04/17 09:27:06;;;;;;;3.20;2.60;;;;;;;16.77;30.27;102685.22;5092046;28;20067;-62
2022/04/17 09:29:36;;;;;;;4.32;3.03;;;;;;;16.93;32.85;102684.44;5084447;28;20027;-64
2022/04/17 09:32:12;;;;;;;3.50;2.92;;;;;;;16.96;31.13;102693.47;5083496;28;20020;-65
2022/04/17 09:34:58;;;;;;;4.38;3.97;;;;;;;17.16;32.42;102682.59;5093878;28;20116;-61
2022/04/17 09:37:25;;;;;;;5.53;3.33;;;;;;;17.29;32.42;102682.31;5091203;28;20027;-63
2022/04/17 09:39:54;;;;;;;4.78;3.38;;;;;;;17.45;31.93;102674.13;5089681;28;20176;-63
2022/04/17 09:42:23;;;;;;;3.75;2.88;;;;;;;17.63;31.64;102677.50;5089679;28;20064;-63
2022/04/17 09:44:54;;;;;;;5.32;3.40;;;;;;;17.62;31.21;102673.00;5094276;28;20047;-62
2022/04/17 09:47:25;;;;;;;5.57;3.20;;;;;;;17.50;30.85;102666.63;5105538;28;20031;-62
2022/04/17 09:50:03;;;;;;;5.63;3.22;;;;;;;17.53;29.51;102657.72;5100099;28;20156;-62
2022/04/17 09:52:31;;;;;;;5.13;3.75;;;;;;;17.40;29.08;102663.66;5085615;28;20035;-62
2022/04/17 09:54:58;;;;;;;4.22;3.10;;;;;;;17.42;30.09;102659.50;5091558;28;20024;-62
2022/04/17 09:57:31;;;;;;;3.75;2.78;;;;;;;17.40;30.73;102650.47;5089886;28;21009;-62
2022/04/17 10:00:04;;;;;;;4.60;2.75;;;;;;;17.53;30.98;102646.47;5101016;28;20547;-62
2022/04/17 10:02:30;;;;;;;4.43;2.95;;;;;;;17.57;30.28;102636.44;5090666;28;20114;-62
2022/04/17 10:04:55;;;;;;;3.55;2.90;;;;;;;17.51;29.52;102633.78;5107983;28;20538;-62
2022/04/17 10:07:24;;;;;;;5.10;2.88;;;;;;;17.58;30.13;102629.72;5088679;28;20043;-62
2022/04/17 10:09:49;;;;;;;3.70;2.75;;;;;;;17.61;30.55;102628.34;5090899;28;20032;-59
2022/04/17 10:12:19;;;;;;;5.05;2.83;;;;;;;17.63;30.14;102623.31;5085814;28;20036;-61
2022/04/17 10:14:47;;;;;;;4.60;2.83;;;;;;;17.59;29.79;102619.31;5084862;28;20028;-61
2022/04/17 10:17:13;;;;;;;5.35;2.80;;;;;;;17.48;28.99;102611.84;5102206;28;20020;-59
2022/04/17 10:19:42;;;;;;;5.97;2.70;;;;;;;17.46;29.87;102609.31;5090856;28;20519;-60
2022/04/17 10:22:09;;;;;;;4.22;2.80;;;;;;;17.41;29.01;102618.50;5084970;28;20032;-62
2022/04/17 10:24:37;;;;;;;4.57;2.40;;;;;;;17.58;30.07;102606.41;5086686;28;20038;-61
2022/04/17 10:27:05;;;;;;;10.63;3.08;;;;;;;17.63;29.67;102596.06;5091836;28;20459;-61
2022/04/17 10:29:43;;;;;;;31.70;4.28;;;;;;;17.63;29.77;102596.06;5087169;28;20410;-62
2022/04/17 10:32:47;;;;;;;7.38;2.40;;;;;;;17.63;29.20;102590.47;5087421;28;20024;-61
2022/04/17 10:35:34;;;;;;;14.65;3.03;;;;;;;17.58;30.00;102592.38;5084786;28;20027;-61
2022/04/17 10:38:25;;;;;;;4.95;2.15;;;;;;;17.60;28.96;102590.13;5092182;28;20032;-61
2022/04/17 10:41:05;;;;;;;7.85;2.70;;;;;;;17.57;27.58;102571.88;5086870;28;20027;-61
2022/04/17 10:43:34;;;;;;;4.53;2.53;;;;;;;17.58;27.39;102573.56;5089352;28;20066;-61
2022/04/17 10:46:12;;;;;;;6.93;2.90;;;;;;;17.64;28.66;102569.72;5100677;28;20020;-61
2022/04/17 10:48:57;;;;;;;4.85;2.60;;;;;;;17.60;27.95;102562.91;5099950;28;20073;-61
2022/04/17 10:51:24;;;;;;;6.75;2.50;;;;;;;17.69;27.90;102559.66;5094762;28;20440;-62
2022/04/17 10:54:03;;;;;;;12.23;2.92;;;;;;;17.69;28.34;102551.25;5091964;28;20110;-62
2022/04/17 10:56:32;;;;;;;4.93;2.50;;;;;;;17.70;26.58;102553.78;5091095;28;20106;-62
2022/04/17 10:59:00;;;;;;;3.55;1.98;;;;;;;17.65;26.33;102553.72;5090719;28;20043;-60
2022/04/17 11:01:41;;;;;;;4.20;2.20;;;;;;;17.64;26.96;102538.84;5091510;28;20114;-62
2022/04/17 11:04:21;;;;;;;3.83;2.28;;;;;;;17.57;26.70;102540.13;5086409;28;20032;-62
2022/04/17 11:06:52;;;;;;;7.93;2.15;;;;;;;17.64;26.06;102541.63;5091468;28;20499;-62
2022/04/17 11:09:27;;;;;;;8.38;2.38;;;;;;;17.63;25.56;102537.09;5102182;28;20031;-62
2022/04/17 11:11:52;;;;;;;9.45;2.20;;;;;;;17.75;26.92;102531.41;5092289;28;20074;-62
2022/04/17 11:14:23;;;;;;;12.55;2.22;;;;;;;17.80;25.87;102525.00;5096647;28;20763;-62
2022/04/17 11:16:53;;;;;;;5.78;2.30;;;;;;;17.90;25.63;102527.94;5086630;28;20804;-63
2022/04/17 11:19:24;;;;;;;2.40;2.03;;;;;;;18.02;25.70;102528.66;5088629;28;20040;-63
2022/04/17 11:21:54;;;;;;;9.73;2.45;;;;;;;18.03;25.70;102524.72;5083638;28;20020;-62
2022/04/17 11:24:23;;;;;;;6.43;2.00;;;;;;;18.18;26.39;102524.06;5087858;28;20495;-60
2022/04/17 11:26:54;;;;;;;5.97;1.90;;;;;;;18.24;26.11;102525.00;5089757;28;20052;-60
2022/04/17 11:29:49;;;;;;;2.10;1.70;;;;;;;18.20;26.26;102519.03;5091708;28;20067;-61
2022/04/17 11:32:21;;;;;;;5.95;2.38;;;;;;;18.24;25.71;102500.53;5086587;28;20020;-62
2022/04/17 11:34:52;;;;;;;3.40;2.00;;;;;;;18.28;24.92;102498.91;5093946;28;20032;-61
2022/04/17 11:37:28;;;;;;;4.97;2.20;;;;;;;18.23;25.44;102493.19;5088696;28;20036;-61
2022/04/17 11:39:55;;;;;;;5.03;2.42;;;;;;;18.32;26.01;102483.19;5089136;28;20506;-61
2022/04/17 11:42:21;;;;;;;4.18;1.88;;;;;;;18.35;25.00;102493.91;5090778;28;20550;-60
2022/04/17 11:44:49;;;;;;;5.57;2.35;;;;;;;18.26;25.14;102491.81;5091559;28;20032;-61